Flight Track Log - Related Links

Times and Time Zones

All times are in EDT time to prevent confusion due to time zone crossing. See the TAM3609 flight status page for this flight to view local times or setup timezone preferences in your user account.

Time Position Orientation Groundspeed Altitude Reporting Facility
EDT Latitude Longitude Course Direction KTS MPH feet Rate Location/Type
Thu 03:07:00 PM -6.9510 -56.4718 138° Southeast  Level Estimated
Thu 03:08:00 PM -7.0377 -56.3918 137° Southeast  Level Estimated
Thu 03:09:00 PM -7.1244 -56.3117 137° Southeast  Level Estimated
Thu 03:10:00 PM -7.2111 -56.2315 137° Southeast  Level Estimated
Thu 03:11:00 PM -7.2977 -56.1514 137° Southeast  Level Estimated
Thu 03:12:00 PM -7.3843 -56.0712 137° Southeast  Level Estimated
Thu 03:13:00 PM -7.4710 -55.9910 137° Southeast  Level Estimated
Thu 03:14:00 PM -7.5576 -55.9107 137° Southeast  Level Estimated
Thu 03:15:00 PM -7.6442 -55.8305 137° Southeast  Level Estimated
Thu 03:16:00 PM -7.7307 -55.7501 137° Southeast  Level Estimated
Thu 03:17:00 PM -7.8173 -55.6698 137° Southeast  Level Estimated
Thu 03:18:00 PM -7.9039 -55.5894 137° Southeast  Level Estimated
Thu 03:19:00 PM -7.9904 -55.5090 137° Southeast  Level Estimated
Thu 03:20:00 PM -8.0769 -55.4286 137° Southeast  Level Estimated
Thu 03:21:00 PM -8.1634 -55.3481 137° Southeast  Level Estimated
Thu 03:22:00 PM -8.2499 -55.2676 137° Southeast  Level Estimated
Thu 03:23:00 PM -8.3364 -55.1870 137° Southeast  Level Estimated
Thu 03:24:00 PM -8.4228 -55.1064 137° Southeast  Level Estimated
Thu 03:25:00 PM -8.5092 -55.0258 137° Southeast  Level Estimated
Thu 03:26:00 PM -8.5957 -54.9451 137° Southeast  Level Estimated
Thu 03:27:00 PM -8.6821 -54.8644 137° Southeast  Level Estimated
Thu 03:28:00 PM -8.7684 -54.7837 137° Southeast  Level Estimated
Thu 03:29:00 PM -8.8548 -54.7029 137° Southeast  Level Estimated
Thu 03:30:00 PM -8.9412 -54.6221 137° Southeast  Level Estimated
Thu 03:31:00 PM -9.0275 -54.5413 137° Southeast  Level Estimated
Thu 03:32:00 PM -9.1138 -54.4604 137° Southeast  Level Estimated
Thu 03:33:00 PM -9.2001 -54.3795 137° Southeast  Level Estimated
Thu 03:34:00 PM -9.2864 -54.2985 137° Southeast  Level Estimated
Thu 03:35:00 PM -9.3727 -54.2175 137° Southeast  Level Estimated
Thu 03:36:00 PM -9.4589 -54.1365 137° Southeast  Level Estimated
Thu 03:37:00 PM -9.5451 -54.0554 137° Southeast  Level Estimated
Thu 03:38:00 PM -9.6313 -53.9743 137° Southeast  Level Estimated
Thu 03:39:00 PM -9.7175 -53.8931 137° Southeast  Level Estimated
Thu 03:40:00 PM -9.8037 -53.8119 137° Southeast  Level Estimated
Thu 03:41:00 PM -9.8898 -53.7307 137° Southeast  Level Estimated
Thu 03:42:00 PM -9.9760 -53.6494 137° Southeast  Level Estimated
Thu 03:43:00 PM -10.0621 -53.5680 137° Southeast  Level Estimated
Thu 03:44:00 PM -10.1482 -53.4866 137° Southeast  Level Estimated
Thu 03:45:00 PM -10.2342 -53.4052 137° Southeast  Level Estimated
Thu 03:46:00 PM -10.3203 -53.3237 137° Southeast  Level Estimated
Thu 03:47:00 PM -10.4063 -53.2422 137° Southeast  Level Estimated
Thu 03:48:00 PM -10.4923 -53.1607 137° Southeast  Level Estimated
Thu 03:49:00 PM -10.5783 -53.0791 137° Southeast  Level Estimated
Thu 03:50:00 PM -10.6643 -52.9974 137° Southeast  Level Estimated
Thu 03:51:00 PM -10.7502 -52.9157 137° Southeast  Level Estimated
Thu 03:52:00 PM -10.8362 -52.8340 137° Southeast  Level Estimated
Thu 03:53:00 PM -10.9221 -52.7522 137° Southeast  Level Estimated
Thu 03:54:00 PM -11.0079 -52.6704 137° Southeast  Level Estimated
Thu 03:55:00 PM -11.0938 -52.5885 137° Southeast  Level Estimated
Thu 03:56:00 PM -11.1796 -52.5066 137° Southeast  Level Estimated
Thu 03:57:00 PM -11.2654 -52.4246 137° Southeast  Level Estimated
Thu 03:58:00 PM -11.3512 -52.3425 137° Southeast  Level Estimated
Thu 03:59:00 PM -11.4370 -52.2605 137° Southeast  Level Estimated
Thu 04:00:00 PM -11.5228 -52.1783 137° Southeast  Level Estimated
Thu 04:01:00 PM -11.6085 -52.0962 137° Southeast  Level Estimated
Thu 04:02:00 PM -11.6942 -52.0139 137° Southeast  Level Estimated
Thu 04:03:00 PM -11.7799 -51.9316 137° Southeast  Level Estimated
Thu 04:04:00 PM -11.8655 -51.8493 137° Southeast  Level Estimated
Thu 04:05:00 PM -11.9511 -51.7669 137° Southeast  Level Estimated
Thu 04:06:00 PM -12.0367 -51.6845 137° Southeast  Level Estimated
Thu 04:07:00 PM -12.1223 -51.6020 137° Southeast  Level Estimated
Thu 04:08:00 PM -12.2079 -51.5195 137° Southeast  Level Estimated
Thu 04:09:00 PM -12.2934 -51.4369 137° Southeast  Level Estimated
Thu 04:10:00 PM -12.3789 -51.3542 137° Southeast  Level Estimated
Thu 04:11:00 PM -12.4644 -51.2715 137° Southeast  Level Estimated
Thu 04:12:00 PM -12.5499 -51.1888 137° Southeast  Level Estimated
Thu 04:13:00 PM -12.6353 -51.1060 137° Southeast  Level Estimated
Thu 04:14:00 PM -12.7207 -51.0231 137° Southeast  Level Estimated
Thu 04:15:00 PM -12.8061 -50.9402 137° Southeast  Level Estimated
Thu 04:16:00 PM -12.8914 -50.8572 137° Southeast  Level Estimated
Thu 04:17:00 PM -12.9768 -50.7742 137° Southeast  Level Estimated
Thu 04:18:00 PM -13.0621 -50.6911 137° Southeast  Level Estimated
Thu 04:19:00 PM -13.1473 -50.6079 136° Southeast  Level Estimated
Thu 04:20:00 PM -13.2326 -50.5247 136° Southeast  Level Estimated
Thu 04:21:00 PM -13.3178 -50.4414 136° Southeast  Level Estimated
Thu 04:22:00 PM -13.4030 -50.3581 136° Southeast  Level Estimated
Thu 04:23:00 PM -13.4882 -50.2747 136° Southeast  Level Estimated
Thu 04:24:00 PM -13.5733 -50.1913 136° Southeast  Level Estimated
Thu 04:25:00 PM -13.6584 -50.1078 136° Southeast  Level Estimated
Thu 04:26:00 PM -13.7435 -50.0243 136° Southeast  Level Estimated
Thu 04:27:00 PM -13.8286 -49.9406 136° Southeast  Level Estimated
Thu 04:28:00 PM -13.9136 -49.8569 136° Southeast  Level Estimated
Thu 04:29:00 PM -13.9986 -49.7732 136° Southeast  Level Estimated
Thu 04:30:00 PM -14.0836 -49.6894 136° Southeast  Level Estimated
Thu 04:31:00 PM -14.1685 -49.6055 136° Southeast  Level Estimated
Thu 04:32:00 PM -14.2534 -49.5216 136° Southeast  Level Estimated
Thu 04:33:00 PM -14.3383 -49.4376 136° Southeast  Level Estimated
Thu 04:34:00 PM -14.4231 -49.3535 136° Southeast  Level Estimated
Thu 04:35:00 PM -14.5080 -49.2694 136° Southeast  Level Estimated
Thu 04:36:00 PM -14.5927 -49.1852 136° Southeast  Level Estimated
Thu 04:37:00 PM -14.6775 -49.1010 136° Southeast  Level Estimated
Thu 04:38:00 PM -14.7622 -49.0167 136° Southeast  Level Estimated
Thu 04:39:00 PM -14.8469 -48.9323 136° Southeast  Level Estimated
Thu 04:40:00 PM -14.9316 -48.8478 136° Southeast  Level Estimated
Thu 04:41:00 PM -15.0162 -48.7633 136° Southeast  Level Estimated
Thu 04:42:00 PM -15.1009 -48.6787 136° Southeast  Level Estimated
Thu 04:43:00 PM -15.1854 -48.5941 136° Southeast  Level Estimated
Thu 04:44:00 PM -15.2700 -48.5093 136° Southeast  Level Estimated
Thu 04:45:00 PM -15.3545 -48.4246 136° Southeast  Level Estimated
Thu 04:46:00 PM -15.4390 -48.3397 136° Southeast  Level Estimated
Thu 04:47:00 PM -15.5234 -48.2548 136° Southeast  Level Estimated
Thu 04:48:00 PM -15.6079 -48.1698 136° Southeast  Level Estimated
Thu 04:49:00 PM -15.6922 -48.0847 136° Southeast  Level Estimated
Thu 04:50:00 PM -15.7766 -47.9996 136° Southeast  Level Estimated
Thu 04:51:00 PM -15.8609 -47.9144 136° Southeast  Level Estimated
Thu 04:52:00 PM -15.8626 -47.9127 136° Southeast  Level Estimated
Thu 04:53:00 PM -15.8626 -47.9127 128° Southeast  Level Estimated
Thu 04:54:00 PM -15.8626 -47.9127 128° Southeast  Level Estimated
Thu 04:55:00 PM -15.8626 -47.9127 128° Southeast  Level Estimated
Thu 04:56:00 PM -15.8626 -47.9127 128° Southeast  Level Estimated
Thu 04:57:00 PM -15.8626 -47.9127 128° Southeast  Level Estimated
Thu 04:58:00 PM -15.8626 -47.9127 128° Southeast  Level Estimated
Thu 04:59:00 PM -15.8626 -47.9127 128° Southeast  Level Estimated
Thu 05:00:00 PM -15.8626 -47.9127 128° Southeast  Level Estimated
Thu 05:01:00 PM -15.8626 -47.9127 128° Southeast  Level Estimated
Thu 05:02:00 PM -15.8626 -47.9127 128° Southeast  Level Estimated
Thu 05:03:00 PM -15.8626 -47.9127 128° Southeast  Level Estimated
Thu 05:04:00 PM -15.8626 -47.9127 128° Southeast  Level Estimated
Thu 05:05:00 PM -15.8626 -47.9127 128° Southeast  Level Estimated
Thu 05:06:00 PM -15.8626 -47.9127 128° Southeast  Level Estimated
Thu 05:07:00 PM -15.8626 -47.9127 128° Southeast  Level Estimated

Login

Don't have an account? Register now (free) for customized features, flight alerts, and more!